Time;durP1;ratioP1;P1;durP2;ratioP2;P2;SDS_P1;SDS_P2;PMS_P1;PMS_P2;Temp;Humidity;BMP_temperature;BMP_pressure;BME280_temperature;BME280_humidity;BME280_pressure;Samples;Min_cycle;Max_cycle;Signal;HPM_P1;HPM_P2
2022/05/11 00:00:15;;;;;;;24.00;11.30;;;;;;;11.98;100.00;101172.16;4726853;29;20534;-72
2022/05/11 00:02:40;;;;;;;20.70;11.55;;;;;;;11.93;100.00;101161.16;4711194;29;20043;-72
2022/05/11 00:05:08;;;;;;;25.02;11.45;;;;;;;12.00;100.00;101161.94;4712989;29;20123;-72
2022/05/11 00:07:34;;;;;;;18.55;11.50;;;;;;;12.05;100.00;101162.16;4713941;29;20534;-71
2022/05/11 00:09:59;;;;;;;16.65;10.85;;;;;;;12.10;100.00;101154.22;4731740;29;20865;-71
2022/05/11 00:12:25;;;;;;;19.92;10.57;;;;;;;12.24;100.00;101157.69;4698919;29;20075;-71
2022/05/11 00:14:50;;;;;;;21.42;11.57;;;;;;;12.31;100.00;101154.94;4712407;29;20064;-71
2022/05/11 00:17:16;;;;;;;21.85;12.13;;;;;;;12.38;100.00;101155.75;4711619;29;20460;-71
2022/05/11 00:19:41;;;;;;;17.13;11.55;;;;;;;12.43;100.00;101139.72;4732914;29;20101;-71
2022/05/11 00:22:06;;;;;;;19.33;10.88;;;;;;;12.43;100.00;101137.03;4697314;29;20452;-71
2022/05/11 00:24:32;;;;;;;22.05;11.77;;;;;;;12.46;100.00;101133.03;4710500;29;20484;-71
2022/05/11 00:26:57;;;;;;;20.67;11.48;;;;;;;12.48;100.00;101131.78;4718454;29;20047;-71
2022/05/11 00:29:23;;;;;;;17.33;10.95;;;;;;;12.50;100.00;101124.28;4717553;29;20047;-71
2022/05/11 00:31:48;;;;;;;20.73;11.80;;;;;;;12.50;100.00;101123.47;4729128;29;20043;-71
2022/05/11 00:34:15;;;;;;;17.45;11.55;;;;;;;12.51;100.00;101125.94;4726807;29;20046;-70
2022/05/11 00:36:40;;;;;;;19.60;11.80;;;;;;;12.50;100.00;101116.19;4731824;29;20084;-70
2022/05/11 00:39:05;;;;;;;19.15;11.30;;;;;;;12.53;100.00;101107.66;4727296;29;20276;-70
2022/05/11 00:41:31;;;;;;;18.13;11.73;;;;;;;12.53;100.00;101104.94;4731105;29;20433;-71
2022/05/11 00:43:59;;;;;;;16.67;11.50;;;;;;;12.57;100.00;101098.06;4732145;29;20566;-70
2022/05/11 00:46:44;;;;;;;19.17;10.32;;;;;;;12.64;100.00;101085.31;4714598;29;20046;-71
2022/05/11 00:49:35;;;;;;;17.50;10.88;;;;;;;12.76;100.00;101084.59;4719268;29;20061;-71
2022/05/11 00:52:10;;;;;;;14.18;10.52;;;;;;;12.71;100.00;101087.13;4707260;29;20599;-70
2022/05/11 00:54:44;;;;;;;18.27;11.30;;;;;;;12.74;100.00;101090.22;4731481;29;20461;-70
2022/05/11 00:57:15;;;;;;;18.52;11.00;;;;;;;12.68;100.00;101101.91;4729884;29;20269;-71
2022/05/11 00:59:43;;;;;;;18.77;10.93;;;;;;;12.69;100.00;101094.63;4715855;29;22257;-70
2022/05/11 01:02:08;;;;;;;15.35;11.15;;;;;;;12.75;100.00;101093.75;4712412;29;20051;-71
2022/05/11 01:04:41;;;;;;;18.83;10.23;;;;;;;12.76;100.00;101095.41;4717108;29;20676;-71
2022/05/11 01:07:11;;;;;;;17.63;11.10;;;;;;;12.78;100.00;101096.03;4716694;29;20072;-71
2022/05/11 01:09:36;;;;;;;18.25;10.82;;;;;;;12.78;100.00;101087.91;4722838;29;20042;-71
2022/05/11 01:12:06;;;;;;;21.58;11.10;;;;;;;12.77;100.00;101092.47;4732244;29;20122;-71
2022/05/11 01:14:34;;;;;;;15.93;10.77;;;;;;;12.77;100.00;101094.34;4720604;29;20673;-71
2022/05/11 01:16:59;;;;;;;21.77;10.20;;;;;;;12.76;100.00;101087.28;4713664;29;20075;-71
2022/05/11 01:19:27;;;;;;;16.98;9.82;;;;;;;12.80;100.00;101080.38;4710382;29;20058;-70
2022/05/11 01:22:26;;;;;;;18.90;9.93;;;;;;;12.78;100.00;101087.91;4732044;29;20039;-71
2022/05/11 01:24:52;;;;;;;18.90;10.77;;;;;;;12.79;100.00;101089.56;4725952;29;20499;-70
2022/05/11 01:27:36;;;;;;;15.18;9.48;;;;;;;12.78;100.00;101087.91;4732745;29;20058;-72
2022/05/11 01:30:07;;;;;;;15.10;10.52;;;;;;;12.80;100.00;101091.19;4727901;29;20484;-72
2022/05/11 01:32:33;;;;;;;16.15;9.32;;;;;;;12.74;100.00;101092.06;4730829;29;20050;-72
2022/05/11 01:35:05;;;;;;;22.17;11.90;;;;;;;12.69;100.00;101089.22;4711360;29;20201;-71
2022/05/11 01:37:32;;;;;;;17.83;9.32;;;;;;;12.75;100.00;101082.94;4721842;29;20061;-72
2022/05/11 01:39:57;;;;;;;16.83;9.48;;;;;;;12.71;100.00;101089.84;4718459;29;20069;-69
2022/05/11 01:42:23;;;;;;;18.83;9.48;;;;;;;12.75;100.00;101080.25;4724038;29;20050;-71
2022/05/11 01:44:48;;;;;;;19.55;10.18;;;;;;;12.72;100.00;101077.97;4732711;29;20114;-70
2022/05/11 01:47:13;;;;;;;16.52;10.02;;;;;;;12.65;100.00;101068.03;4728943;29;20389;-70
2022/05/11 01:49:39;;;;;;;15.95;8.80;;;;;;;12.72;100.00;101072.56;4733449;29;20492;-70
2022/05/11 01:52:05;;;;;;;11.45;8.73;;;;;;;12.70;100.00;101074.66;4719938;29;20132;-70
2022/05/11 01:54:30;;;;;;;15.55;8.70;;;;;;;12.70;100.00;101053.03;4714576;29;20035;-70
2022/05/11 01:56:55;;;;;;;11.88;8.23;;;;;;;12.75;100.00;101055.91;4711681;29;20043;-70
2022/05/11 01:59:21;;;;;;;13.52;9.20;;;;;;;12.79;100.00;101051.72;4731739;29;20067;-70
2022/05/11 02:01:46;;;;;;;11.20;7.65;;;;;;;12.76;100.00;101052.97;4731921;29;20039;-70
2022/05/11 02:09:43;;;;;;;15.10;7.63;;;;;;;12.71;100.00;101055.53;4726928;29;20051;-72
2022/05/11 02:12:10;;;;;;;13.20;7.20;;;;;;;12.61;100.00;101056.03;4700458;29;20861;-72
2022/05/11 02:14:36;;;;;;;14.95;7.57;;;;;;;12.64;100.00;101046.66;4717381;29;20720;-72
2022/05/11 02:17:02;;;;;;;13.73;8.10;;;;;;;12.58;100.00;101039.41;4715902;29;20164;-72
2022/05/11 02:19:29;;;;;;;13.82;8.35;;;;;;;12.54;100.00;101039.03;4712288;29;20043;-72
2022/05/11 02:21:54;;;;;;;16.15;8.20;;;;;;;12.60;100.00;101038.16;4714317;29;20047;-72
2022/05/11 02:24:20;;;;;;;12.48;7.93;;;;;;;12.56;100.00;101045.03;4700917;29;20108;-72
2022/05/11 02:26:45;;;;;;;14.45;8.10;;;;;;;12.60;100.00;101040.00;4729727;29;20923;-71
2022/05/11 02:29:11;;;;;;;13.40;8.15;;;;;;;12.62;100.00;101046.03;4730621;29;20086;-71
2022/05/11 02:31:37;;;;;;;16.40;8.57;;;;;;;12.67;100.00;101043.50;4726420;29;20063;-72
2022/05/11 02:34:05;;;;;;;13.43;7.22;;;;;;;12.66;100.00;101042.66;4732263;29;20587;-71
2022/05/11 02:36:32;;;;;;;12.98;8.00;;;;;;;12.68;100.00;101034.34;4728017;29;20562;-72
2022/05/11 02:38:58;;;;;;;13.73;8.02;;;;;;;12.64;100.00;101027.72;4732233;29;20370;-71
2022/05/11 02:41:23;;;;;;;12.80;7.80;;;;;;;12.64;100.00;101020.44;4728308;29;20085;-71
2022/05/11 02:43:48;;;;;;;14.88;8.15;;;;;;;12.68;100.00;101020.00;4731281;29;20059;-71
2022/05/11 02:46:14;;;;;;;14.73;7.60;;;;;;;12.71;100.00;101025.78;4727151;29;20066;-71
2022/05/11 02:48:39;;;;;;;11.20;6.88;;;;;;;12.72;100.00;101024.75;4730008;29;20051;-72
2022/05/11 02:51:05;;;;;;;11.93;7.85;;;;;;;12.66;100.00;101026.44;4730534;29;20763;-72
2022/05/11 02:53:32;;;;;;;12.45;7.88;;;;;;;12.66;100.00;101031.84;4711233;29;20183;-71
2022/05/11 02:55:57;;;;;;;12.65;7.90;;;;;;;12.62;100.00;101030.63;4713615;29;20133;-72
2022/05/11 02:58:26;;;;;;;12.32;7.55;;;;;;;12.65;100.00;101034.78;4725411;29;20043;-72
2022/05/11 03:00:52;;;;;;;13.18;7.72;;;;;;;12.57;100.00;101027.78;4732566;29;20180;-72
2022/05/11 03:03:19;;;;;;;11.77;7.10;;;;;;;12.57;100.00;101033.19;4717865;29;20160;-71
2022/05/11 03:05:45;;;;;;;11.23;7.15;;;;;;;12.53;100.00;101032.00;4731229;29;21763;-71
2022/05/11 03:08:11;;;;;;;15.00;7.72;;;;;;;12.61;100.00;101022.78;4731379;29;20146;-71
2022/05/11 03:10:39;;;;;;;12.27;7.13;;;;;;;12.60;100.00;101015.69;4727373;29;20466;-72
2022/05/11 03:13:04;;;;;;;14.13;7.15;;;;;;;12.61;100.00;101028.19;4731655;29;23401;-71
2022/05/11 03:15:31;;;;;;;17.02;7.28;;;;;;;12.69;100.00;101032.47;4726762;29;20043;-71
2022/05/11 03:17:56;;;;;;;11.25;6.35;;;;;;;12.70;100.00;101020.59;4727549;29;20050;-71
2022/05/11 03:20:23;;;;;;;14.52;6.95;;;;;;;12.63;100.00;101010.66;4726700;29;20042;-72
2022/05/11 03:22:52;;;;;;;9.98;6.57;;;;;;;12.61;100.00;101010.09;4712688;29;20042;-72
2022/05/11 03:25:18;;;;;;;16.63;7.45;;;;;;;12.58;100.00;101013.22;4699069;29;20043;-72
2022/05/11 03:27:43;;;;;;;14.55;6.70;;;;;;;12.59;100.00;101012.16;4712741;29;22857;-72
2022/05/11 03:30:10;;;;;;;14.20;7.03;;;;;;;12.60;100.00;101015.69;4726811;29;20038;-72
2022/05/11 03:35:19;;;;;;;15.20;6.88;;;;;;;12.72;100.00;101008.53;4729923;29;20584;-72
2022/05/11 03:37:45;;;;;;;13.40;6.75;;;;;;;12.74;100.00;100994.78;4712887;29;20051;-72
2022/05/11 03:40:10;;;;;;;13.02;7.53;;;;;;;12.78;100.00;100990.59;4727433;29;20039;-71
2022/05/11 03:42:37;;;;;;;13.75;7.20;;;;;;;12.77;100.00;100989.75;4715593;29;20087;-72
2022/05/11 03:45:20;;;;;;;14.55;6.57;;;;;;;12.78;100.00;100991.41;4729511;29;22295;-71
2022/05/11 03:47:46;;;;;;;12.15;7.65;;;;;;;12.81;100.00;100968.50;4726868;29;20058;-72
2022/05/11 03:50:13;;;;;;;13.07;6.22;;;;;;;12.84;100.00;100978.88;4727605;29;21074;-72
2022/05/11 03:52:38;;;;;;;11.35;7.30;;;;;;;12.84;100.00;100970.75;4728236;29;20035;-72
2022/05/11 03:55:06;;;;;;;17.77;7.18;;;;;;;12.80;100.00;100975.78;4719603;29;20160;-72
2022/05/11 03:57:35;;;;;;;11.68;7.13;;;;;;;12.80;100.00;100977.66;4730295;29;20038;-72
2022/05/11 04:00:01;;;;;;;13.43;7.05;;;;;;;12.81;100.00;100973.91;4714463;29;20051;-71
2022/05/11 04:02:26;;;;;;;11.85;7.03;;;;;;;12.88;100.00;100958.44;4731315;29;20100;-72
2022/05/11 04:04:52;;;;;;;15.27;7.70;;;;;;;12.83;100.00;100952.88;4702156;29;20046;-71
2022/05/11 04:07:17;;;;;;;15.32;7.45;;;;;;;12.86;100.00;100955.97;4718300;29;20126;-72
2022/05/11 04:09:44;;;;;;;12.85;7.13;;;;;;;12.86;100.00;100960.56;4698659;29;20857;-72
2022/05/11 04:12:10;;;;;;;18.52;7.40;;;;;;;12.88;100.00;100951.19;4730919;29;20050;-72
2022/05/11 04:14:35;;;;;;;13.05;7.35;;;;;;;12.92;100.00;100959.66;4731545;29;23792;-72
2022/05/11 04:17:00;;;;;;;13.25;7.55;;;;;;;12.89;100.00;100950.13;4716078;29;20180;-72
2022/05/11 04:19:27;;;;;;;14.80;8.63;;;;;;;12.94;100.00;100952.13;4729304;29;20042;-72
2022/05/11 04:21:52;;;;;;;18.08;7.45;;;;;;;12.96;100.00;100939.22;4719165;29;20045;-71
2022/05/11 04:24:18;;;;;;;15.02;6.82;;;;;;;12.99;100.00;100944.19;4730226;29;20055;-72
2022/05/11 04:26:43;;;;;;;14.32;7.25;;;;;;;12.94;100.00;100946.72;4715018;29;20055;-72
2022/05/11 04:29:09;;;;;;;13.55;7.10;;;;;;;12.93;100.00;100953.19;4731836;29;20073;-71
2022/05/11 04:31:34;;;;;;;16.38;6.47;;;;;;;12.96;100.00;100958.16;4718899;29;20130;-72
2022/05/11 04:34:00;;;;;;;10.65;6.50;;;;;;;13.03;100.00;100950.78;4728948;29;20050;-72
2022/05/11 04:36:25;;;;;;;9.57;6.30;;;;;;;13.05;100.00;100951.38;4712689;29;20051;-72
2022/05/11 04:38:50;;;;;;;13.60;6.03;;;;;;;13.11;100.00;100947.75;4714465;29;20877;-72
2022/05/11 04:41:16;;;;;;;14.35;6.32;;;;;;;13.11;100.00;100945.06;4730289;29;20047;-72
2022/05/11 04:43:42;;;;;;;11.98;6.45;;;;;;;13.10;100.00;100946.13;4718241;29;20070;-72
2022/05/11 04:46:07;;;;;;;14.77;6.65;;;;;;;13.11;100.00;100953.19;4712470;29;20070;-72
2022/05/11 04:48:33;;;;;;;13.95;6.03;;;;;;;13.17;100.00;100961.44;4697789;29;20113;-72
2022/05/11 04:51:02;;;;;;;11.00;6.15;;;;;;;13.24;100.00;100956.81;4729684;29;20069;-72
2022/05/11 04:53:28;;;;;;;9.35;5.63;;;;;;;13.32;100.00;100954.59;4726983;29;20066;-72
2022/05/11 04:55:54;;;;;;;13.55;5.57;;;;;;;13.40;100.00;100947.22;4702394;29;20054;-72
2022/05/11 04:58:19;;;;;;;13.88;5.28;;;;;;;13.43;100.00;100944.88;4719463;29;20047;-72
2022/05/11 05:00:45;;;;;;;7.95;5.65;;;;;;;13.44;100.00;100941.13;4696673;29;20112;-71
2022/05/11 05:03:12;;;;;;;15.45;6.07;;;;;;;13.44;100.00;100924.88;4729779;29;20035;-72
2022/05/11 05:05:39;;;;;;;13.82;6.03;;;;;;;13.51;100.00;100925.66;4699404;29;20052;-72
2022/05/11 05:08:05;;;;;;;14.23;5.75;;;;;;;13.58;100.00;100930.94;4728802;29;24836;-72
2022/05/11 05:10:31;;;;;;;14.43;5.93;;;;;;;13.62;100.00;100932.16;4716145;29;20166;-71
2022/05/11 05:13:03;;;;;;;17.80;5.60;;;;;;;13.66;100.00;100936.03;4714607;29;20127;-72
2022/05/11 05:15:28;;;;;;;13.27;5.22;;;;;;;13.78;100.00;100933.34;4729580;29;20958;-72
2022/05/11 05:17:54;;;;;;;12.32;5.22;;;;;;;13.81;100.00;100941.84;4716672;29;20074;-71
2022/05/11 05:20:19;;;;;;;12.90;5.03;;;;;;;13.83;100.00;100950.56;4729525;29;20054;-71
2022/05/11 05:22:45;;;;;;;11.77;5.60;;;;;;;13.91;100.00;100941.28;4697784;29;20067;-71
2022/05/11 05:25:10;;;;;;;15.02;5.25;;;;;;;14.01;100.00;100941.53;4731658;29;20071;-70
2022/05/11 05:27:36;;;;;;;18.90;5.78;;;;;;;14.01;100.00;100941.53;4716131;29;20057;-70
2022/05/11 05:32:46;;;;;;;14.27;5.70;;;;;;;14.06;100.00;100930.81;4718619;29;20249;-71
2022/05/11 05:35:16;;;;;;;12.10;4.95;;;;;;;14.14;100.00;100928.81;4732822;29;22645;-71
2022/05/11 05:37:42;;;;;;;15.10;4.90;;;;;;;14.20;100.00;100936.00;4734224;29;20058;-72
2022/05/11 05:40:08;;;;;;;14.15;5.60;;;;;;;14.24;100.00;100939.91;4702499;29;20560;-70
2022/05/11 05:42:34;;;;;;;15.88;5.72;;;;;;;14.22;100.00;100947.47;4715777;29;26527;-70
2022/05/11 05:44:59;;;;;;;20.23;5.40;;;;;;;14.28;100.00;100946.50;4704541;29;20057;-70
2022/05/11 05:47:24;;;;;;;13.77;5.47;;;;;;;14.36;100.00;100942.63;4718613;29;20061;-70
2022/05/11 05:49:50;;;;;;;14.40;5.55;;;;;;;14.44;100.00;100940.38;4721119;29;20047;-70
2022/05/11 05:52:21;;;;;;;20.35;5.65;;;;;;;14.48;100.00;100930.72;4734958;29;20039;-72
2022/05/11 05:54:47;;;;;;;12.23;4.78;;;;;;;14.53;100.00;100922.75;4721709;29;20045;-70
2022/05/11 05:57:14;;;;;;;15.60;5.65;;;;;;;14.58;100.00;100930.16;4735270;29;20379;-70
2022/05/11 05:59:39;;;;;;;16.17;5.97;;;;;;;14.61;100.00;100928.88;4716957;29;20804;-70
2022/05/11 06:02:09;;;;;;;16.75;5.93;;;;;;;14.70;100.00;100927.41;4721996;29;20047;-71
2022/05/11 06:04:35;;;;;;;15.70;7.03;;;;;;;14.76;100.00;100908.31;4734220;29;20049;-71
2022/05/11 06:07:00;;;;;;;12.02;5.82;;;;;;;14.82;100.00;100903.00;4702709;29;20054;-71
2022/05/11 06:09:26;;;;;;;12.07;5.47;;;;;;;14.80;100.00;100917.63;4731345;29;20046;-71
2022/05/11 06:11:54;;;;;;;15.50;5.75;;;;;;;14.83;100.00;100927.16;4719276;29;20058;-73
2022/05/11 06:14:20;;;;;;;17.17;5.30;;;;;;;14.82;100.00;100922.81;4730593;29;20043;-72
2022/05/11 06:16:45;;;;;;;16.95;5.68;;;;;;;14.91;100.00;100934.91;4697698;29;20089;-72
2022/05/11 06:19:11;;;;;;;10.85;5.38;;;;;;;15.00;100.00;100938.09;4732312;29;20038;-74
2022/05/11 06:21:36;;;;;;;14.45;5.55;;;;;;;14.98;100.00;100935.59;4715907;29;20081;-72
2022/05/11 06:24:01;;;;;;;16.27;6.10;;;;;;;15.08;100.00;100934.19;4719004;29;22499;-72
2022/05/11 06:26:27;;;;;;;16.65;5.70;;;;;;;15.21;100.00;100926.59;4734767;29;20043;-72
2022/05/11 06:28:54;;;;;;;13.27;5.82;;;;;;;15.47;100.00;100932.50;4719324;29;20082;-72
2022/05/11 06:31:19;;;;;;;13.95;5.70;;;;;;;15.60;100.00;100926.78;4733789;29;20036;-73
2022/05/11 06:33:46;;;;;;;15.82;5.32;;;;;;;15.72;100.00;100924.00;4719440;29;20221;-72
2022/05/11 06:36:12;;;;;;;14.85;5.30;;;;;;;15.81;100.00;100928.00;4733346;29;20138;-72
2022/05/11 06:38:37;;;;;;;19.92;6.40;;;;;;;16.10;100.00;100925.19;4708856;29;22108;-72
2022/05/11 06:41:10;;;;;;;14.18;5.18;;;;;;;16.39;100.00;100924.03;4716811;29;20054;-72
2022/05/11 06:43:36;;;;;;;15.73;5.93;;;;;;;16.64;100.00;100925.47;4730512;29;20043;-72
2022/05/11 06:46:01;;;;;;;11.82;5.53;;;;;;;16.84;100.00;100914.88;4714574;29;20637;-71
2022/05/11 06:48:27;;;;;;;16.58;6.25;;;;;;;17.16;100.00;100914.16;4727452;29;20069;-72
2022/05/11 06:50:52;;;;;;;16.60;5.55;;;;;;;17.27;100.00;100918.66;4718122;29;20047;-72
2022/05/11 06:53:17;;;;;;;13.43;5.75;;;;;;;17.41;100.00;100909.00;4731785;29;20054;-72
2022/05/11 07:01:13;;;;;;;17.00;6.50;;;;;;;16.68;100.00;100910.28;4707539;29;20099;-70
2022/05/11 07:03:39;;;;;;;14.80;6.65;;;;;;;16.56;100.00;100909.56;4740364;29;20043;-73
2022/05/11 07:06:05;;;;;;;18.35;6.55;;;;;;;16.53;100.00;100901.91;4723210;29;20039;-72
2022/05/11 07:08:40;;;;;;;14.50;5.90;;;;;;;16.65;100.00;100899.91;4716399;29;20055;-71
2022/05/11 07:13:49;;;;;;;12.75;6.45;;;;;;;16.55;100.00;100899.78;4717484;29;20055;-70
2022/05/11 07:16:15;;;;;;;17.63;6.88;;;;;;;16.43;100.00;100903.44;4732086;29;22435;-70
2022/05/11 07:18:41;;;;;;;19.60;6.00;;;;;;;16.32;100.00;100896.19;4703273;29;20054;-71
2022/05/11 07:21:07;;;;;;;15.70;6.85;;;;;;;16.12;100.00;100896.72;4734249;29;20046;-70
2022/05/11 07:23:33;;;;;;;16.00;5.95;;;;;;;16.20;100.00;100888.13;4718996;29;20059;-71
2022/05/11 07:25:59;;;;;;;22.90;7.25;;;;;;;16.30;100.00;100898.34;4731802;29;20063;-71
2022/05/11 07:28:24;;;;;;;14.85;6.03;;;;;;;16.62;100.00;100905.84;4731485;29;21214;-71
2022/05/11 07:30:51;;;;;;;17.67;6.60;;;;;;;16.98;100.00;100911.78;4717139;29;20050;-71
2022/05/11 07:33:17;;;;;;;19.98;6.20;;;;;;;17.31;100.00;100911.63;4738269;29;20042;-71
2022/05/11 07:35:43;;;;;;;18.73;6.43;;;;;;;17.56;100.00;100899.34;4717191;29;20143;-72
2022/05/11 07:38:11;;;;;;;15.68;6.07;;;;;;;17.55;100.00;100908.56;4714705;29;20047;-71
2022/05/11 07:40:37;;;;;;;17.70;6.43;;;;;;;17.59;100.00;100899.66;4699483;29;20139;-70
2022/05/11 07:43:03;;;;;;;16.27;5.78;;;;;;;17.47;100.00;100898.16;4731942;29;20071;-70
2022/05/11 07:45:28;;;;;;;19.17;6.05;;;;;;;17.54;100.00;100885.16;4696774;29;20050;-71
2022/05/11 07:47:53;;;;;;;20.65;6.57;;;;;;;17.51;100.00;100902.00;4718315;29;20444;-71
2022/05/11 07:50:19;;;;;;;26.00;7.07;;;;;;;18.06;100.00;100906.34;4732316;29;20069;-71
2022/05/11 07:52:46;;;;;;;13.85;6.05;;;;;;;18.34;100.00;100914.16;4718251;29;20054;-71
2022/05/11 07:55:13;;;;;;;20.65;7.00;;;;;;;18.36;100.00;100912.00;4732149;29;20055;-71
2022/05/11 08:00:22;;;;;;;26.65;7.68;;;;;;;18.47;100.00;100901.16;4733144;29;20047;-70
2022/05/11 08:02:48;;;;;;;19.27;7.55;;;;;;;18.38;100.00;100906.28;4720470;29;20071;-71
2022/05/11 08:05:16;;;;;;;15.63;6.90;;;;;;;18.45;100.00;100900.59;4735451;29;20047;-71
2022/05/11 08:07:47;;;;;;;17.35;6.32;;;;;;;18.53;99.04;100900.09;4714912;29;20051;-71
2022/05/11 08:10:16;;;;;;;19.25;6.25;;;;;;;18.54;99.57;100909.94;4718749;29;20257;-71
2022/05/11 08:12:41;;;;;;;16.65;6.07;;;;;;;19.11;90.44;100914.59;4732189;29;20131;-71
2022/05/11 08:15:07;;;;;;;20.70;5.57;;;;;;;19.22;87.24;100908.06;4717906;29;20987;-72
2022/05/11 08:17:34;;;;;;;16.15;5.72;;;;;;;19.03;89.76;100898.72;4733052;29;20419;-72
2022/05/11 08:20:01;;;;;;;24.15;5.80;;;;;;;19.14;83.91;100891.38;4700613;29;20105;-72
2022/05/11 08:22:27;;;;;;;15.70;5.10;;;;;;;19.45;78.56;100897.75;4716079;29;20679;-72
2022/05/11 08:24:54;;;;;;;13.45;5.78;;;;;;;19.56;78.84;100893.94;4719545;29;20043;-72
2022/05/11 08:27:21;;;;;;;17.08;5.68;;;;;;;19.91;76.19;100900.53;4715340;29;20098;-72
2022/05/11 08:35:16;;;;;;;19.83;6.00;;;;;;;19.78;72.64;100890.97;4718296;29;20050;-71
2022/05/11 08:37:42;;;;;;;14.32;3.92;;;;;;;20.27;71.09;100896.66;4715276;29;20137;-71
2022/05/11 08:40:12;;;;;;;16.88;4.18;;;;;;;20.58;69.37;100891.16;4721366;29;20050;-71
2022/05/11 08:42:38;;;;;;;16.27;4.13;;;;;;;20.66;67.06;100898.78;4700970;29;20067;-72
2022/05/11 08:45:04;;;;;;;17.58;4.03;;;;;;;20.42;65.88;100893.06;4716411;29;20043;-71
2022/05/11 08:47:47;;;;;;;15.80;4.45;;;;;;;20.18;66.54;100894.75;4718303;29;20062;-73
2022/05/11 08:50:19;;;;;;;14.23;3.65;;;;;;;20.69;64.91;100900.16;4732779;29;20487;-72
2022/05/11 08:52:56;;;;;;;12.55;4.00;;;;;;;20.70;63.69;100910.81;4718193;29;20058;-72
2022/05/11 08:55:41;;;;;;;18.63;4.55;;;;;;;20.61;62.53;100896.06;4732921;29;20057;-71
2022/05/11 08:58:23;;;;;;;14.90;4.28;;;;;;;20.42;64.92;100898.53;4716504;29;20054;-72
2022/05/11 09:00:50;;;;;;;15.68;4.00;;;;;;;20.60;64.85;100910.84;4728219;29;20131;-72
2022/05/11 09:03:36;;;;;;;20.73;4.68;;;;;;;20.27;63.34;100899.41;4702648;29;20155;-72
2022/05/11 09:06:15;;;;;;;16.67;3.85;;;;;;;19.90;66.98;100907.06;4720974;29;20526;-72
2022/05/11 09:08:40;;;;;;;19.02;4.40;;;;;;;19.94;67.73;100913.66;4719339;29;20089;-72
2022/05/11 09:11:07;;;;;;;20.02;4.18;;;;;;;19.96;67.81;100917.75;4734965;29;20165;-72
2022/05/11 09:13:35;;;;;;;25.98;5.43;;;;;;;20.39;66.41;100914.69;4720435;29;20067;-72
2022/05/11 09:16:02;;;;;;;17.38;4.90;;;;;;;20.79;64.56;100918.47;4719861;29;20186;-72
2022/05/11 09:18:31;;;;;;;17.33;4.13;;;;;;;21.06;61.10;100915.31;4715296;29;20399;-72
2022/05/11 09:20:58;;;;;;;17.08;4.43;;;;;;;20.76;61.06;100919.00;4719306;29;20047;-70
2022/05/11 09:23:33;;;;;;;21.80;4.40;;;;;;;20.82;62.38;100917.91;4718326;29;20054;-71
2022/05/11 09:26:06;;;;;;;21.08;3.92;;;;;;;21.17;60.92;100911.44;4705147;29;20047;-71
2022/05/11 09:28:34;;;;;;;18.80;3.83;;;;;;;21.43;58.24;100914.88;4725907;29;20538;-72
2022/05/11 09:31:12;;;;;;;16.45;4.10;;;;;;;21.30;57.56;100912.72;4706654;29;20052;-70
2022/05/11 09:33:42;;;;;;;18.70;4.05;;;;;;;20.58;59.40;100921.25;4717740;29;20044;-71
2022/05/11 09:36:09;;;;;;;16.92;3.92;;;;;;;20.33;61.32;100911.16;4729837;29;20523;-71
2022/05/11 09:38:43;;;;;;;16.48;4.30;;;;;;;20.42;62.02;100903.19;4710019;29;20050;-72
2022/05/11 09:41:18;;;;;;;12.13;3.72;;;;;;;20.37;62.99;100904.03;4727962;29;20971;-71
2022/05/11 09:43:52;;;;;;;16.38;4.25;;;;;;;20.42;61.97;100906.75;4722716;29;20047;-71
2022/05/11 09:46:23;;;;;;;14.00;3.78;;;;;;;20.01;65.32;100906.00;4719942;29;20077;-71
2022/05/11 09:49:06;;;;;;;14.48;3.40;;;;;;;20.08;64.48;100906.56;4711698;29;20186;-71
2022/05/11 09:51:46;;;;;;;14.50;3.67;;;;;;;20.65;62.70;100899.88;4721611;29;20047;-72
2022/05/11 09:54:18;;;;;;;20.02;3.45;;;;;;;21.53;58.89;100912.06;4719597;29;20050;-72
2022/05/11 09:56:58;;;;;;;16.73;3.40;;;;;;;22.23;54.87;100903.59;4733586;29;21311;-72
2022/05/11 09:59:36;;;;;;;14.60;3.88;;;;;;;22.66;53.39;100908.34;4706152;29;20051;-72
2022/05/11 10:02:30;;;;;;;18.90;4.60;;;;;;;22.23;52.71;100911.81;4734195;29;20038;-72
2022/05/11 10:05:06;;;;;;;20.73;3.90;;;;;;;22.11;54.09;100903.94;4708916;29;20089;-71
2022/05/11 10:08:06;;;;;;;18.35;3.58;;;;;;;21.88;53.18;100902.75;4733196;29;20054;-72
2022/05/11 10:10:43;;;;;;;18.30;4.93;;;;;;;21.36;54.32;100898.75;4719551;29;20113;-71
2022/05/11 10:13:35;;;;;;;19.33;3.72;;;;;;;21.00;55.58;100914.53;4732957;29;20069;-71
2022/05/11 10:21:56;;;;;;;15.73;4.60;;;;;;;19.54;64.48;100907.84;4697901;29;20055;-71
2022/05/11 10:25:01;;;;;;;19.80;3.90;;;;;;;19.39;67.99;100915.22;4719470;29;20046;-71
2022/05/11 10:27:33;;;;;;;17.80;3.67;;;;;;;19.45;71.85;100914.94;4696194;29;20050;-71
2022/05/11 10:30:10;;;;;;;17.52;3.53;;;;;;;19.65;68.93;100902.44;4734494;29;20051;-71
2022/05/11 10:32:41;;;;;;;20.60;4.53;;;;;;;19.83;67.91;100895.59;4706012;29;20122;-71
2022/05/11 10:35:32;;;;;;;16.75;3.53;;;;;;;20.64;64.15;100897.41;4717556;29;20095;-71
2022/05/11 10:38:09;;;;;;;22.27;4.53;;;;;;;21.14;58.74;100901.88;4717895;29;20065;-71
2022/05/11 10:41:06;;;;;;;18.98;4.15;;;;;;;20.96;58.83;100900.59;4733547;29;20039;-71
2022/05/11 10:43:50;;;;;;;16.50;3.40;;;;;;;21.48;55.95;100894.84;4718073;29;20075;-72
2022/05/11 10:46:22;;;;;;;21.67;4.72;;;;;;;21.81;55.23;100893.22;4733392;29;20078;-70
2022/05/11 10:49:12;;;;;;;17.65;3.50;;;;;;;22.82;51.91;100887.84;4719283;29;20118;-70
2022/05/11 10:51:57;;;;;;;21.88;3.97;;;;;;;23.25;49.63;100893.34;4721102;29;20051;-70
2022/05/11 10:54:59;;;;;;;16.65;3.80;;;;;;;23.83;48.23;100886.69;4718282;29;20124;-73
2022/05/11 10:58:22;;;;;;;21.98;4.03;;;;;;;24.13;46.09;100877.09;4733202;29;20156;-72
2022/05/11 11:00:55;;;;;;;14.95;3.65;;;;;;;24.42;45.33;100888.66;4674260;30;20150;-71
2022/05/11 11:03:20;;;;;;;15.88;3.10;;;;;;;23.71;43.96;100884.41;4689058;30;20048;-72
2022/05/11 11:09:28;;;;;;;17.05;3.40;;;;;;;23.26;45.63;100905.94;4703159;30;20340;-72
2022/05/11 11:12:00;;;;;;;11.57;2.65;;;;;;;23.19;45.15;100905.50;4688428;30;20502;-72
2022/05/11 11:14:30;;;;;;;13.18;3.10;;;;;;;23.67;44.84;100902.59;4709921;29;20039;-72
2022/05/11 11:16:55;;;;;;;15.80;3.25;;;;;;;23.96;43.71;100903.25;4705545;29;20057;-72
2022/05/11 11:19:22;;;;;;;14.02;2.58;;;;;;;24.31;42.33;100892.72;4717562;29;20047;-70
2022/05/11 11:21:47;;;;;;;12.55;3.30;;;;;;;24.26;43.00;100895.56;4714837;29;20043;-70
2022/05/11 11:24:24;;;;;;;12.70;3.25;;;;;;;24.45;41.76;100877.06;4735241;29;20039;-70
2022/05/11 11:26:56;;;;;;;13.68;3.17;;;;;;;23.93;42.16;100881.81;4714564;29;20055;-70
2022/05/11 11:29:28;;;;;;;15.73;3.40;;;;;;;22.73;44.76;100886.84;4703126;29;20079;-70
2022/05/11 11:32:14;;;;;;;11.75;3.75;;;;;;;23.56;43.79;100886.25;4734068;29;20094;-70
2022/05/11 11:35:04;;;;;;;11.35;3.08;;;;;;;23.97;42.51;100884.78;4706463;29;20067;-71
2022/05/11 11:37:29;;;;;;;12.95;3.35;;;;;;;23.83;42.94;100871.00;4729589;29;20047;-70
2022/05/11 11:39:59;;;;;;;16.88;3.38;;;;;;;23.60;41.98;100880.97;4719099;29;20065;-72
2022/05/11 11:42:37;;;;;;;11.75;2.60;;;;;;;23.55;42.66;100879.13;4717760;29;20117;-70
2022/05/11 11:45:26;;;;;;;16.48;3.38;;;;;;;23.38;41.90;100876.09;4723320;29;20043;-70
2022/05/11 11:48:04;;;;;;;15.35;2.22;;;;;;;23.26;41.05;100867.47;4730509;29;20055;-70
2022/05/11 11:50:43;;;;;;;11.23;2.33;;;;;;;23.07;41.01;100862.00;4717217;29;20055;-71
2022/05/11 11:53:38;;;;;;;10.68;2.70;;;;;;;23.42;40.37;100860.66;4734259;29;20074;-71
2022/05/11 11:56:23;;;;;;;14.45;2.67;;;;;;;23.93;40.07;100856.25;4687567;29;22600;-71
2022/05/11 11:59:05;;;;;;;10.90;2.13;;;;;;;23.64;40.30;100873.75;4733363;29;20046;-72